Simmons Army Air Field
KFBG : now visible

Airfield :











YOU CAN JOIN US ON...

 
LOGIN :

Register | Disclaimer

   EN    FR    IT 

 









Legend :    VFR   Marginal VFR   IFR   Intensive IFR   Very Intensive IFR
Visi :
Ceiling :
>= 8 km
>= 3000ft
5 to 8 km
1000 to 3000 ft
1500m to 5 km
500 to 1000 ft
800 to 1500m
200 to 500 ft
< 800m
< 200 ft
Symbols :   Thunderstorms  Fog  Heavy snow  Heavy precipitations  Wind > 20 kt






- Airport Elevation : 244 ft


KFBG - Simmons Army Air Field

CURRENT METAR :
  • 060256Z AUTO 19005KT 10SM CLR 18/10 A3006 RMK AO2 SLP181 T01770103 52014 $

EXPIRED METARs :
  • 060156Z AUTO 00000KT 10SM CLR 17/10 A3005 RMK AO2 SLP178 T01690100 $
  • 060136Z AUTO 00000KT 10SM FEW150 17/11 A3005 RMK AO2 SLP178 $
  • 060056Z AUTO 15003KT 10SM CLR 17/11 A3003 RMK AO2 SLP172 T01690105 $

TAF TAF KFBG
Valid from the 06 at 01:00 until the 07 at 07:00 UTC


060100Z 0601/0707 21006KT 9999 FEW060 FEW250 QNH3000INS
BECMG 0603/0604 21006KT 9999 FEW005 SCT020 OVC050 510102 QNH3005INS
TEMPO 0604/0612 6000 BR BKN005
BECMG 0612/0613 24010G15KT 9999 SCT020 SCT050 BKN150 QNH3006INS
BECMG 0618/0619 27012KT 9999 VCSH SCT020 BKN050 OVC150 QNH2999INS
BECMG 0620/0621 27010G20KT 6000 -SHRA VCTS BKN020CB OVC050 QNH2996INS
BECMG 0700/0701 30009KT 9999 NSW BKN050 OVC150 QNH3001INS TX24/0620Z TN09/0611Z



MET'MAP, your aeronautical weather chart ! - Copyright ORBIFLY December 2007 - Disclaimer

ORBIFLY MET'MAP TEAM :

Programming & Development : Alexandra Zaïnal
Concept & original design : Baudouin d'Aumeries
Assistance for programming : Marc-Olivier Méhu
Technical & hardware support : Manuel Goepfert

Contact : metmap@orbifly.com




SOURCES & CREDITS :

   NOAA       Earth
Advisory